Time;durP1;ratioP1;P1;durP2;ratioP2;P2;SDS_P1;SDS_P2;PMS_P1;PMS_P2;Temp;Humidity;BMP_temperature;BMP_pressure;BME280_temperature;BME280_humidity;BME280_pressure;Samples;Min_cycle;Max_cycle;Signal;HPM_P1;HPM_P2
2023/10/15 00:01:59;;;;;;;1.30;1.20;;;24.10;63.30;;;;;;5043056;28;20458;-72
2023/10/15 00:04:27;;;;;;;1.97;1.30;;;24.10;63.30;;;;;;5042185;28;20471;-71
2023/10/15 00:06:55;;;;;;;2.40;1.47;;;24.10;63.30;;;;;;5043869;28;20462;-72
2023/10/15 00:09:24;;;;;;;1.40;1.30;;;24.00;63.30;;;;;;5030551;28;20512;-72
2023/10/15 00:11:52;;;;;;;1.50;1.40;;;24.10;63.30;;;;;;5047905;28;20526;-71
2023/10/15 00:14:20;;;;;;;2.23;1.90;;;24.00;63.30;;;;;;5046667;28;20498;-71
2023/10/15 00:16:50;;;;;;;2.10;1.60;;;24.00;63.10;;;;;;5045932;28;20465;-72
2023/10/15 00:19:19;;;;;;;2.50;1.50;;;24.00;63.30;;;;;;5049846;28;20538;-72
2023/10/15 00:21:47;;;;;;;1.50;1.33;;;24.00;63.20;;;;;;5038188;28;20464;-72
2023/10/15 00:24:15;;;;;;;1.83;1.40;;;24.00;63.20;;;;;;5045929;28;20461;-73
2023/10/15 00:26:44;;;;;;;2.07;1.40;;;24.00;63.30;;;;;;5034357;28;20814;-73
2023/10/15 00:29:13;;;;;;;1.90;1.17;;;24.00;63.20;;;;;;5030750;28;20979;-72
2023/10/15 00:31:42;;;;;;;2.80;1.30;;;24.00;63.20;;;;;;5049887;28;20452;-72
2023/10/15 00:34:13;;;;;;;1.63;1.40;;;24.00;63.10;;;;;;5044190;28;20494;-72
2023/10/15 00:36:41;;;;;;;1.47;1.33;;;24.00;63.10;;;;;;5043980;28;20447;-72
2023/10/15 00:39:20;;;;;;;1.43;1.33;;;24.00;63.00;;;;;;5045612;28;20471;-72
2023/10/15 00:41:49;;;;;;;2.40;1.37;;;24.00;63.00;;;;;;5035431;28;21043;-72
2023/10/15 00:44:17;;;;;;;1.60;1.50;;;24.00;63.00;;;;;;5041093;28;20576;-71
2023/10/15 00:46:54;;;;;;;1.50;1.13;;;24.00;63.00;;;;;;5044837;28;20466;-72
2023/10/15 00:49:26;;;;;;;2.90;1.40;;;24.00;62.90;;;;;;5034824;28;20541;-72
2023/10/15 00:51:56;;;;;;;0.90;0.90;;;24.00;62.80;;;;;;5050970;28;20511;-72
2023/10/15 00:54:24;;;;;;;1.63;1.53;;;24.00;62.80;;;;;;5051047;28;20428;-72
2023/10/15 00:56:54;;;;;;;4.73;1.40;;;24.00;62.80;;;;;;5040523;28;20459;-72
2023/10/15 00:59:34;;;;;;;4.50;1.43;;;24.00;62.80;;;;;;5037231;28;20500;-72
2023/10/15 01:02:04;;;;;;;1.50;1.40;;;24.00;62.90;;;;;;5058465;28;20815;-72
2023/10/15 01:04:35;;;;;;;0.97;0.97;;;24.00;62.80;;;;;;5044903;28;20558;-72
2023/10/15 01:07:20;;;;;;;1.40;1.30;;;23.90;62.80;;;;;;5047305;28;20453;-72
2023/10/15 01:09:49;;;;;;;1.70;1.10;;;23.90;62.80;;;;;;5048520;28;20800;-72
2023/10/15 01:12:23;;;;;;;4.63;1.80;;;23.90;62.80;;;;;;5035926;28;20497;-72
2023/10/15 01:14:52;;;;;;;1.10;1.00;;;23.90;62.70;;;;;;5030913;28;20432;-72
2023/10/15 01:17:23;;;;;;;1.40;1.30;;;23.90;62.70;;;;;;5028771;28;20467;-72
2023/10/15 01:19:53;;;;;;;1.43;1.33;;;23.90;62.70;;;;;;5040538;28;20502;-71
2023/10/15 01:22:24;;;;;;;2.30;1.20;;;23.90;62.70;;;;;;5039340;28;20459;-72
2023/10/15 01:24:54;;;;;;;0.90;0.90;;;23.90;62.60;;;;;;5033436;28;21015;-72
2023/10/15 01:27:27;;;;;;;1.53;1.10;;;23.90;62.60;;;;;;5047550;28;20944;-72
2023/10/15 01:29:58;;;;;;;1.40;1.20;;;23.90;62.60;;;;;;5082716;28;20789;-72
2023/10/15 01:32:30;;;;;;;1.80;1.37;;;23.90;62.70;;;;;;5048253;28;20461;-72
2023/10/15 01:35:01;;;;;;;2.50;1.50;;;23.90;62.60;;;;;;5051684;28;20434;-71
2023/10/15 01:37:30;;;;;;;3.60;1.20;;;23.90;62.60;;;;;;5047507;28;20460;-72
2023/10/15 01:40:36;;;;;;;1.03;0.90;;;23.90;62.60;;;;;;5034467;28;20567;-72
2023/10/15 01:42:53;;;;;;;1.37;1.27;;;23.90;62.60;;;;;;5050101;28;20504;-72
2023/10/15 01:45:31;;;;;;;1.77;1.67;;;23.90;62.50;;;;;;5054533;28;20499;-71
2023/10/15 01:48:05;;;;;;;2.77;1.10;;;23.90;62.50;;;;;;5046319;28;20857;-71
2023/10/15 01:50:45;;;;;;;1.60;1.10;;;23.90;62.60;;;;;;5049131;28;20830;-72
2023/10/15 01:53:14;;;;;;;1.43;1.20;;;23.90;62.40;;;;;;5052508;28;20456;-71
2023/10/15 01:58:32;;;;;;;1.40;1.30;;;23.90;62.40;;;;;;5059419;28;20546;-71
2023/10/15 02:01:13;;;;;;;1.67;1.17;;;23.90;62.40;;;;;;5062425;28;20479;-71
2023/10/15 02:03:42;;;;;;;0.97;0.97;;;23.90;62.50;;;;;;5052157;28;20837;-71
2023/10/15 02:06:11;;;;;;;1.23;1.13;;;23.90;62.40;;;;;;5053695;28;20444;-73
2023/10/15 02:08:39;;;;;;;1.67;1.23;;;23.90;62.50;;;;;;5041522;28;20471;-71
2023/10/15 02:11:21;;;;;;;1.10;1.03;;;23.90;62.40;;;;;;5034586;28;20459;-71
2023/10/15 02:13:49;;;;;;;2.00;1.30;;;23.90;62.40;;;;;;5040266;28;20498;-71
2023/10/15 02:16:25;;;;;;;0.90;0.90;;;23.90;62.40;;;;;;5033679;28;20487;-71
2023/10/15 02:18:58;;;;;;;1.40;1.30;;;23.90;62.40;;;;;;5043938;28;20560;-71
2023/10/15 02:21:31;;;;;;;1.23;1.07;;;23.90;62.40;;;;;;5037008;28;20515;-71
2023/10/15 02:24:08;;;;;;;1.50;1.20;;;23.90;62.30;;;;;;5042524;28;20471;-71
2023/10/15 02:26:39;;;;;;;3.03;1.43;;;23.90;62.30;;;;;;5043332;28;20487;-71
2023/10/15 02:29:22;;;;;;;2.10;1.37;;;23.90;62.30;;;;;;5033487;28;20491;-71
2023/10/15 02:31:50;;;;;;;1.60;1.23;;;23.90;62.30;;;;;;5035860;28;20458;-71
2023/10/15 02:34:24;;;;;;;1.30;1.23;;;23.90;62.20;;;;;;5042003;28;20467;-71
2023/10/15 02:36:53;;;;;;;1.33;1.23;;;23.90;62.20;;;;;;5038843;28;20525;-71
2023/10/15 02:39:23;;;;;;;2.30;1.37;;;23.80;62.20;;;;;;5038157;28;20452;-71
2023/10/15 02:41:53;;;;;;;1.70;1.60;;;23.90;62.20;;;;;;5034466;28;20492;-71
2023/10/15 02:44:22;;;;;;;1.57;1.13;;;23.80;62.20;;;;;;5036968;28;20468;-71
2023/10/15 02:47:06;;;;;;;1.93;1.10;;;23.80;62.20;;;;;;5043993;28;20462;-71
2023/10/15 02:49:50;;;;;;;5.87;1.53;;;23.80;62.20;;;;;;5032876;28;20455;-71
2023/10/15 02:52:20;;;;;;;2.47;1.60;;;23.80;62.20;;;;;;5033068;28;20468;-71
2023/10/15 02:54:49;;;;;;;3.37;1.50;;;23.80;62.20;;;;;;5037480;28;20452;-71
2023/10/15 02:57:20;;;;;;;1.30;1.20;;;23.80;62.10;;;;;;5069083;28;20468;-71
2023/10/15 02:59:51;;;;;;;1.23;1.13;;;23.80;62.20;;;;;;5057219;28;20490;-72
2023/10/15 03:02:21;;;;;;;1.47;1.37;;;23.80;62.20;;;;;;5047613;28;20571;-71
2023/10/15 03:04:55;;;;;;;1.57;1.20;;;23.80;62.20;;;;;;5076103;28;20462;-72
2023/10/15 03:07:30;;;;;;;1.20;1.20;;;23.80;62.10;;;;;;5044856;28;20455;-72
2023/10/15 03:09:59;;;;;;;1.33;1.23;;;23.80;62.20;;;;;;5053152;28;20451;-71
2023/10/15 03:12:33;;;;;;;1.40;1.30;;;23.80;62.20;;;;;;5052559;28;20447;-71
2023/10/15 03:15:02;;;;;;;3.60;1.63;;;23.80;62.20;;;;;;5039083;28;20884;-71
2023/10/15 03:17:30;;;;;;;1.93;1.47;;;23.80;62.20;;;;;;5049100;28;20491;-71
2023/10/15 03:20:10;;;;;;;1.30;1.20;;;23.80;62.20;;;;;;5042082;28;20460;-71
2023/10/15 03:22:39;;;;;;;2.20;1.60;;;23.80;62.30;;;;;;5044604;28;20440;-71
2023/10/15 03:25:13;;;;;;;2.20;1.60;;;23.80;62.20;;;;;;5040915;28;20451;-71
2023/10/15 03:27:46;;;;;;;2.90;2.10;;;23.80;62.40;;;;;;5071759;28;21013;-71
2023/10/15 03:30:15;;;;;;;3.33;1.70;;;23.70;62.30;;;;;;5054369;28;20464;-72
2023/10/15 03:32:45;;;;;;;1.90;1.53;;;23.80;62.30;;;;;;5049096;28;20540;-72
2023/10/15 03:35:16;;;;;;;1.10;1.00;;;23.80;62.20;;;;;;5084638;28;20467;-71
2023/10/15 03:37:47;;;;;;;2.30;1.60;;;23.80;62.20;;;;;;5052221;28;20494;-71
2023/10/15 03:40:30;;;;;;;2.33;1.30;;;23.70;62.20;;;;;;5046082;28;20467;-71
2023/10/15 03:43:04;;;;;;;1.30;1.17;;;23.70;62.20;;;;;;5038831;28;20507;-72
2023/10/15 03:45:39;;;;;;;3.40;1.57;;;23.70;62.30;;;;;;5034870;28;20480;-72
2023/10/15 03:48:14;;;;;;;2.23;1.60;;;23.80;62.20;;;;;;5041282;28;20456;-72
2023/10/15 03:50:53;;;;;;;1.30;1.20;;;23.70;62.30;;;;;;5042036;28;20466;-71
2023/10/15 03:53:27;;;;;;;1.90;1.40;;;23.70;62.30;;;;;;5048480;28;20926;-72
2023/10/15 03:55:57;;;;;;;1.20;1.10;;;23.70;62.20;;;;;;5072276;28;21165;-71
2023/10/15 03:58:27;;;;;;;1.60;1.50;;;23.70;62.20;;;;;;5051878;28;20434;-71
2023/10/15 04:01:11;;;;;;;0.90;0.90;;;23.70;62.10;;;;;;5037599;28;20574;-71
2023/10/15 04:03:43;;;;;;;1.43;1.33;;;23.70;62.20;;;;;;5050554;28;20467;-71
2023/10/15 04:06:13;;;;;;;1.93;1.17;;;23.70;62.30;;;;;;5045889;28;20469;-71
2023/10/15 04:08:59;;;;;;;1.20;1.00;;;23.70;62.30;;;;;;5051795;28;20516;-71
2023/10/15 04:11:30;;;;;;;1.63;1.53;;;23.70;62.30;;;;;;5045965;28;20518;-71
2023/10/15 04:14:04;;;;;;;1.03;0.90;;;23.70;62.00;;;;;;5051928;28;20479;-71
2023/10/15 04:16:34;;;;;;;1.17;0.97;;;23.70;62.00;;;;;;5038484;28;20453;-72
2023/10/15 04:19:02;;;;;;;1.70;1.60;;;23.70;62.00;;;;;;5043249;28;20462;-72
2023/10/15 04:21:30;;;;;;;0.80;0.80;;;23.70;62.10;;;;;;5034667;28;20534;-71
2023/10/15 04:23:59;;;;;;;1.43;1.33;;;23.70;62.20;;;;;;5051379;28;20447;-72
2023/10/15 04:26:30;;;;;;;1.43;1.33;;;23.70;61.80;;;;;;5062748;28;20469;-72
2023/10/15 04:29:06;;;;;;;1.10;0.97;;;23.70;62.00;;;;;;5071015;28;20454;-72
2023/10/15 04:31:35;;;;;;;1.53;1.20;;;23.70;62.00;;;;;;5053706;28;20438;-72
2023/10/15 04:34:04;;;;;;;1.13;0.93;;;23.70;61.90;;;;;;5051421;28;20522;-72
2023/10/15 04:36:40;;;;;;;1.50;1.13;;;23.70;61.90;;;;;;5029488;28;21070;-72
2023/10/15 04:39:12;;;;;;;1.60;1.27;;;23.80;61.90;;;;;;5042601;28;20455;-72
2023/10/15 04:41:41;;;;;;;1.40;1.30;;;23.70;61.80;;;;;;5044931;28;20476;-72
2023/10/15 04:44:20;;;;;;;1.00;0.90;;;23.70;61.80;;;;;;5049914;28;20439;-72
2023/10/15 04:46:52;;;;;;;1.87;1.23;;;23.80;61.70;;;;;;5031936;28;20531;-72
2023/10/15 04:49:22;;;;;;;1.10;0.90;;;23.80;61.60;;;;;;5030381;28;20459;-71
2023/10/15 04:51:52;;;;;;;1.13;1.03;;;23.70;61.60;;;;;;5041033;28;20932;-72
2023/10/15 04:54:23;;;;;;;1.50;1.40;;;23.70;61.60;;;;;;5037922;28;20456;-72
2023/10/15 04:56:54;;;;;;;1.00;1.00;;;23.70;61.50;;;;;;5045565;28;20468;-72
2023/10/15 04:59:25;;;;;;;3.20;1.30;;;23.70;61.50;;;;;;5034954;28;21041;-71
2023/10/15 05:01:53;;;;;;;1.07;0.90;;;23.70;61.50;;;;;;5032324;28;20594;-71
2023/10/15 05:04:21;;;;;;;1.40;0.87;;;23.70;61.40;;;;;;5037244;28;20555;-71
2023/10/15 05:06:50;;;;;;;1.73;1.00;;;23.70;61.40;;;;;;5035152;28;20476;-72
2023/10/15 05:09:22;;;;;;;1.60;0.87;;;23.70;61.40;;;;;;5041529;28;20465;-71
2023/10/15 05:11:51;;;;;;;1.23;1.13;;;23.70;61.40;;;;;;5037856;28;20977;-71
2023/10/15 05:14:19;;;;;;;1.23;1.13;;;23.70;61.60;;;;;;5040510;28;20558;-72
2023/10/15 05:16:49;;;;;;;0.80;0.70;;;23.70;61.60;;;;;;5038805;28;20460;-70
2023/10/15 05:19:17;;;;;;;0.87;0.87;;;23.70;61.60;;;;;;5040602;28;20464;-71
2023/10/15 05:21:46;;;;;;;1.40;1.03;;;23.70;61.60;;;;;;5042947;28;21084;-70
2023/10/15 05:24:18;;;;;;;2.03;1.30;;;23.70;61.60;;;;;;5036418;28;20468;-71
2023/10/15 05:26:50;;;;;;;1.17;1.00;;;23.70;61.50;;;;;;5043956;28;20501;-71
2023/10/15 05:29:18;;;;;;;1.63;1.00;;;23.70;61.60;;;;;;5036284;28;20467;-71
2023/10/15 05:31:46;;;;;;;1.50;1.03;;;23.70;61.60;;;;;;5040070;28;20551;-71
2023/10/15 05:34:16;;;;;;;1.60;1.03;;;23.70;61.60;;;;;;5038224;28;20797;-71
2023/10/15 05:36:48;;;;;;;1.20;0.90;;;23.70;61.70;;;;;;5039355;28;20455;-72
2023/10/15 05:39:18;;;;;;;1.00;0.90;;;23.70;61.60;;;;;;5037243;28;20469;-72
2023/10/15 05:41:46;;;;;;;1.77;1.07;;;23.70;61.60;;;;;;5047310;28;20483;-72
2023/10/15 05:44:14;;;;;;;1.00;0.90;;;23.70;61.60;;;;;;5044342;28;20505;-72
2023/10/15 05:46:42;;;;;;;2.40;1.23;;;23.60;61.60;;;;;;5049580;28;20691;-72
2023/10/15 05:49:11;;;;;;;1.03;0.90;;;23.60;61.50;;;;;;5050098;28;20437;-72
2023/10/15 05:51:41;;;;;;;3.70;1.10;;;23.60;61.60;;;;;;5050711;28;20433;-71
2023/10/15 05:54:09;;;;;;;2.13;1.10;;;23.60;61.60;;;;;;5050366;28;20432;-71
2023/10/15 05:56:38;;;;;;;1.93;0.97;;;23.60;61.60;;;;;;5040601;28;20455;-71
2023/10/15 05:59:06;;;;;;;2.20;1.10;;;23.60;61.60;;;;;;5055451;28;20997;-72
2023/10/15 06:01:34;;;;;;;1.13;1.03;;;23.60;61.60;;;;;;5038448;28;20496;-70
2023/10/15 06:04:04;;;;;;;1.20;1.10;;;23.60;61.60;;;;;;5037175;28;20491;-69
2023/10/15 06:06:33;;;;;;;0.80;0.80;;;23.60;61.50;;;;;;5036289;28;20457;-69
2023/10/15 06:09:05;;;;;;;1.27;1.00;;;23.60;61.80;;;;;;5047296;28;20497;-69
2023/10/15 06:11:34;;;;;;;2.80;0.97;;;23.60;61.60;;;;;;5046132;28;20464;-70
2023/10/15 06:14:04;;;;;;;0.80;0.80;;;23.60;61.60;;;;;;5050814;28;20452;-69
2023/10/15 06:16:33;;;;;;;1.40;0.80;;;23.60;61.70;;;;;;5043782;28;20509;-70
2023/10/15 06:19:01;;;;;;;2.90;0.80;;;23.60;61.60;;;;;;5042989;28;20476;-70
2023/10/15 06:21:30;;;;;;;1.00;0.90;;;23.60;61.30;;;;;;5041883;28;20501;-69
2023/10/15 06:23:58;;;;;;;1.13;0.93;;;23.60;61.20;;;;;;5048763;28;21045;-70
2023/10/15 06:26:28;;;;;;;2.83;0.93;;;23.60;61.20;;;;;;5050772;28;20465;-70
2023/10/15 06:28:57;;;;;;;0.90;0.77;;;23.60;61.20;;;;;;5051435;28;20466;-70
2023/10/15 06:31:26;;;;;;;1.67;0.97;;;23.60;61.20;;;;;;5044332;28;20460;-70
2023/10/15 06:33:55;;;;;;;1.40;1.10;;;23.60;61.30;;;;;;5047867;28;20456;-70
2023/10/15 06:36:24;;;;;;;2.43;0.90;;;23.60;61.30;;;;;;5045330;28;20525;-70
2023/10/15 06:38:53;;;;;;;1.87;1.17;;;23.60;61.30;;;;;;5045389;28;20468;-71
2023/10/15 06:41:21;;;;;;;1.93;1.10;;;23.60;61.20;;;;;;5044839;28;20464;-70
2023/10/15 06:43:51;;;;;;;1.30;1.10;;;23.60;61.20;;;;;;5045604;28;20481;-70
2023/10/15 06:46:23;;;;;;;2.70;1.50;;;23.60;61.20;;;;;;5058965;28;20596;-70
2023/10/15 06:48:53;;;;;;;1.30;0.90;;;23.60;61.20;;;;;;5041907;28;20464;-70
2023/10/15 06:51:22;;;;;;;1.30;1.20;;;23.60;61.10;;;;;;5041849;28;20452;-70
2023/10/15 06:53:51;;;;;;;1.70;0.83;;;23.70;61.10;;;;;;5041796;28;20574;-70
2023/10/15 06:56:19;;;;;;;2.40;1.13;;;23.70;61.00;;;;;;5057416;28;20462;-71
2023/10/15 06:58:48;;;;;;;1.40;0.90;;;23.60;60.90;;;;;;5039429;28;20468;-70
2023/10/15 07:01:18;;;;;;;1.20;1.10;;;23.70;61.00;;;;;;5043586;28;20541;-70
2023/10/15 07:03:47;;;;;;;1.43;1.10;;;23.70;60.80;;;;;;5030267;28;20478;-70
2023/10/15 07:06:19;;;;;;;0.83;0.77;;;23.70;60.80;;;;;;5042470;28;20464;-69
2023/10/15 07:08:47;;;;;;;2.13;1.00;;;23.70;60.80;;;;;;5046488;28;20493;-69
2023/10/15 07:11:18;;;;;;;4.90;1.23;;;23.70;60.80;;;;;;5045437;28;20470;-71
2023/10/15 07:13:46;;;;;;;1.57;1.20;;;23.60;60.80;;;;;;5042536;28;20451;-69
2023/10/15 07:16:19;;;;;;;1.40;1.10;;;23.70;61.00;;;;;;5037340;28;20550;-69
2023/10/15 07:18:49;;;;;;;3.20;1.17;;;23.70;61.00;;;;;;5036861;28;20469;-69
2023/10/15 07:21:19;;;;;;;0.83;0.83;;;23.70;61.20;;;;;;5033386;28;20474;-69
2023/10/15 07:23:51;;;;;;;2.37;1.07;;;23.70;61.30;;;;;;5052730;28;20542;-69
2023/10/15 07:26:19;;;;;;;1.50;1.20;;;23.70;61.30;;;;;;5033451;28;20480;-69
2023/10/15 07:28:49;;;;;;;2.07;1.00;;;23.70;61.30;;;;;;5039521;28;20875;-69
2023/10/15 07:31:19;;;;;;;1.40;1.00;;;23.70;61.30;;;;;;5035306;28;20522;-70
2023/10/15 07:33:49;;;;;;;1.30;0.90;;;23.70;61.30;;;;;;5051952;28;20480;-70
2023/10/15 07:36:19;;;;;;;1.33;1.00;;;23.70;61.30;;;;;;5032455;28;20583;-69
2023/10/15 07:38:47;;;;;;;1.60;1.30;;;23.70;61.40;;;;;;5037384;28;20452;-69
2023/10/15 07:41:16;;;;;;;4.70;1.07;;;23.70;61.20;;;;;;5037275;28;20580;-70
2023/10/15 07:43:47;;;;;;;1.37;0.90;;;23.70;61.50;;;;;;5034862;28;20536;-70
2023/10/15 07:46:15;;;;;;;1.10;1.00;;;23.70;61.50;;;;;;5037962;28;20535;-69
2023/10/15 07:48:45;;;;;;;1.20;1.10;;;23.70;61.60;;;;;;5032101;28;20493;-69
2023/10/15 07:51:15;;;;;;;2.70;1.50;;;23.70;61.60;;;;;;5035990;28;21043;-70
2023/10/15 07:53:43;;;;;;;3.13;1.13;;;23.70;61.60;;;;;;5030608;28;21821;-72
2023/10/15 07:56:14;;;;;;;1.60;0.97;;;23.70;61.60;;;;;;5030985;28;21055;-73
2023/10/15 07:58:43;;;;;;;1.40;1.27;;;23.70;61.60;;;;;;5032241;28;20495;-72
2023/10/15 08:01:11;;;;;;;0.80;0.80;;;23.70;61.60;;;;;;5033873;28;20967;-72
2023/10/15 08:03:40;;;;;;;1.00;0.90;;;23.70;61.60;;;;;;5030604;28;20492;-72
2023/10/15 08:06:08;;;;;;;1.27;0.97;;;23.70;61.60;;;;;;5032808;28;20730;-73
2023/10/15 08:08:38;;;;;;;1.37;1.00;;;23.70;61.60;;;;;;5036354;28;20459;-72
2023/10/15 08:11:07;;;;;;;1.07;0.97;;;23.70;61.60;;;;;;5037193;28;20598;-73
2023/10/15 08:13:35;;;;;;;1.00;0.90;;;23.70;61.60;;;;;;5037942;28;20955;-72
2023/10/15 08:16:04;;;;;;;1.77;1.10;;;23.70;61.60;;;;;;5035820;28;20459;-72
2023/10/15 08:18:33;;;;;;;1.50;1.20;;;23.70;61.50;;;;;;5041530;28;20467;-72
2023/10/15 08:21:01;;;;;;;2.23;0.90;;;23.70;61.50;;;;;;5042817;28;20529;-72
2023/10/15 08:23:29;;;;;;;2.13;1.10;;;23.70;61.50;;;;;;5048481;28;20479;-73
2023/10/15 08:25:59;;;;;;;2.10;0.93;;;23.70;61.60;;;;;;5040875;28;20475;-73
2023/10/15 08:28:27;;;;;;;1.30;1.07;;;23.70;61.40;;;;;;5040008;28;20471;-72
2023/10/15 08:30:57;;;;;;;2.17;1.17;;;23.70;61.60;;;;;;5038789;28;20460;-72
2023/10/15 08:33:25;;;;;;;1.47;0.90;;;23.70;61.60;;;;;;5041394;28;20479;-72
2023/10/15 08:35:54;;;;;;;1.90;1.00;;;23.70;61.70;;;;;;5037795;28;20470;-72
2023/10/15 08:38:22;;;;;;;1.27;1.10;;;23.80;61.60;;;;;;5033957;28;20508;-73
2023/10/15 08:40:53;;;;;;;1.80;1.10;;;23.70;61.70;;;;;;5037497;28;20471;-72
2023/10/15 08:43:27;;;;;;;2.20;0.80;;;23.70;61.40;;;;;;5044143;28;20527;-73
2023/10/15 08:45:59;;;;;;;1.80;0.97;;;23.70;61.60;;;;;;5040866;28;20460;-72
2023/10/15 08:48:30;;;;;;;2.40;1.20;;;23.70;61.60;;;;;;5047730;28;20471;-72
2023/10/15 08:51:01;;;;;;;3.97;1.10;;;23.70;61.50;;;;;;5041414;28;20549;-72
2023/10/15 08:53:31;;;;;;;1.40;1.27;;;23.70;61.30;;;;;;5040621;28;20441;-72
2023/10/15 08:56:01;;;;;;;1.50;0.90;;;23.70;61.50;;;;;;5042912;28;21022;-72
2023/10/15 08:58:32;;;;;;;1.10;0.90;;;23.70;61.30;;;;;;5031030;28;20563;-72
2023/10/15 09:01:02;;;;;;;1.67;1.10;;;23.70;61.40;;;;;;5037768;28;20465;-73
2023/10/15 09:03:31;;;;;;;1.87;1.20;;;23.70;61.40;;;;;;5042152;28;20467;-72
2023/10/15 09:06:05;;;;;;;1.53;1.10;;;23.70;61.30;;;;;;5038083;28;20469;-72
2023/10/15 09:08:35;;;;;;;1.10;1.00;;;23.70;61.20;;;;;;5047711;28;20811;-72
2023/10/15 09:11:04;;;;;;;2.10;1.00;;;23.70;61.30;;;;;;5027919;28;20453;-72
2023/10/15 09:13:36;;;;;;;1.90;0.90;;;23.70;61.50;;;;;;5044997;28;20461;-72
2023/10/15 09:16:05;;;;;;;2.10;0.87;;;23.70;61.50;;;;;;5044312;28;20467;-72
2023/10/15 09:18:36;;;;;;;0.77;0.77;;;23.70;61.60;;;;;;5046641;28;21234;-72
2023/10/15 09:21:05;;;;;;;2.10;1.07;;;23.70;61.60;;;;;;5042408;28;20748;-71
2023/10/15 09:23:35;;;;;;;1.60;1.03;;;23.70;61.60;;;;;;5043981;28;20464;-70
2023/10/15 09:26:05;;;;;;;2.00;0.90;;;23.70;61.20;;;;;;5045194;28;20463;-70
2023/10/15 09:28:36;;;;;;;0.93;0.93;;;23.70;61.40;;;;;;5047571;28;20463;-70
2023/10/15 09:31:05;;;;;;;2.03;1.10;;;23.70;61.60;;;;;;5045258;28;20466;-72
2023/10/15 09:33:35;;;;;;;1.57;1.00;;;23.70;61.60;;;;;;5041133;28;20968;-72
2023/10/15 09:36:05;;;;;;;1.70;0.73;;;23.70;61.40;;;;;;5033856;28;20470;-71
2023/10/15 09:38:34;;;;;;;0.87;0.83;;;23.70;61.60;;;;;;5036680;28;20598;-71
2023/10/15 09:41:03;;;;;;;1.23;1.13;;;23.70;61.70;;;;;;5032208;28;20985;-70
2023/10/15 09:43:35;;;;;;;0.97;0.97;;;23.70;61.70;;;;;;5036172;28;21035;-70
2023/10/15 09:46:06;;;;;;;1.17;0.80;;;23.70;61.60;;;;;;5037275;28;20959;-71
2023/10/15 09:48:37;;;;;;;1.80;1.00;;;23.70;61.70;;;;;;5036388;28;20467;-71
2023/10/15 09:51:07;;;;;;;1.10;1.00;;;23.70;61.60;;;;;;5041791;28;20464;-71
2023/10/15 09:53:36;;;;;;;1.17;1.13;;;23.80;61.60;;;;;;5038525;28;20978;-71
2023/10/15 09:56:08;;;;;;;1.63;1.53;;;23.80;61.60;;;;;;5039010;28;20456;-70
2023/10/15 09:58:37;;;;;;;1.43;1.33;;;23.80;61.60;;;;;;5040315;28;20461;-71
2023/10/15 10:01:17;;;;;;;2.30;1.40;;;23.80;61.60;;;;;;5042847;28;21230;-71
2023/10/15 10:04:18;;;;;;;1.57;1.47;;;23.80;61.60;;;;;;5046209;28;20465;-71
2023/10/15 10:07:27;;;;;;;1.23;1.03;;;23.80;61.60;;;;;;5034777;28;20471;-71
2023/10/15 10:10:24;;;;;;;2.67;1.27;;;23.80;61.50;;;;;;5036092;28;20845;-70
2023/10/15 10:13:21;;;;;;;2.13;1.30;;;23.80;61.30;;;;;;5042233;28;20470;-70
2023/10/15 10:15:54;;;;;;;1.23;1.13;;;23.80;61.30;;;;;;5053947;28;20428;-70
2023/10/15 10:18:27;;;;;;;1.80;1.20;;;23.80;61.50;;;;;;5056652;28;20560;-70
2023/10/15 10:20:56;;;;;;;2.10;1.10;;;23.80;61.00;;;;;;5072483;28;20948;-70
2023/10/15 10:23:24;;;;;;;1.60;1.30;;;23.90;61.40;;;;;;5053309;28;20456;-70
2023/10/15 10:26:14;;;;;;;3.13;1.20;;;23.90;61.30;;;;;;5040051;28;21052;-71
2023/10/15 10:28:42;;;;;;;1.23;1.03;;;23.90;61.30;;;;;;5057024;28;20920;-70
2023/10/15 10:31:11;;;;;;;1.47;1.37;;;24.00;61.20;;;;;;5048768;28;20460;-70
2023/10/15 10:33:49;;;;;;;3.00;1.00;;;24.00;61.10;;;;;;5053522;28;20447;-70
2023/10/15 10:36:19;;;;;;;1.20;1.10;;;24.10;60.90;;;;;;5039591;28;20462;-71
2023/10/15 10:38:59;;;;;;;1.73;1.30;;;24.20;60.60;;;;;;5033827;28;20430;-70
2023/10/15 10:41:39;;;;;;;2.50;1.00;;;24.50;59.80;;;;;;5039605;28;21055;-71
2023/10/15 10:44:09;;;;;;;1.67;1.10;;;24.80;59.50;;;;;;5041483;28;20452;-71
2023/10/15 10:46:56;;;;;;;1.47;1.30;;;25.10;58.70;;;;;;5036705;28;20462;-70
2023/10/15 10:49:34;;;;;;;1.47;1.13;;;25.30;58.30;;;;;;5061195;28;20459;-71
2023/10/15 10:52:14;;;;;;;1.83;1.27;;;25.50;58.00;;;;;;5040943;28;20517;-70
2023/10/15 10:54:43;;;;;;;2.17;1.20;;;25.50;57.90;;;;;;5053166;28;20689;-71
2023/10/15 10:57:11;;;;;;;1.30;1.20;;;25.30;58.00;;;;;;5047303;28;20456;-71
2023/10/15 10:59:42;;;;;;;1.77;1.20;;;25.20;58.40;;;;;;5053464;28;20916;-71
2023/10/15 11:02:14;;;;;;;1.40;1.30;;;25.00;58.60;;;;;;5042164;28;20460;-70
2023/10/15 11:04:44;;;;;;;1.47;1.37;;;24.90;58.90;;;;;;5036888;28;20473;-70
2023/10/15 11:07:14;;;;;;;1.43;1.33;;;24.80;59.10;;;;;;5036102;28;20572;-70
2023/10/15 11:09:42;;;;;;;1.57;1.30;;;24.70;59.30;;;;;;5045444;28;20525;-71
2023/10/15 11:12:11;;;;;;;2.03;1.17;;;24.60;59.50;;;;;;5046364;28;20465;-70
2023/10/15 11:14:41;;;;;;;1.77;1.50;;;24.50;59.70;;;;;;5040177;28;20520;-71
2023/10/15 11:17:09;;;;;;;2.63;1.10;;;24.40;59.70;;;;;;5048768;28;20479;-70
2023/10/15 11:19:39;;;;;;;1.60;1.50;;;24.40;59.80;;;;;;5043944;28;20467;-70
2023/10/15 11:22:10;;;;;;;2.30;1.00;;;24.30;59.90;;;;;;5040496;28;20460;-71
2023/10/15 11:24:38;;;;;;;1.17;1.07;;;24.30;60.10;;;;;;5037546;28;20463;-70
2023/10/15 11:27:12;;;;;;;1.90;1.27;;;24.20;60.20;;;;;;5036028;28;20468;-70
2023/10/15 11:29:43;;;;;;;1.30;1.20;;;24.20;60.30;;;;;;5034336;28;20455;-70
2023/10/15 11:32:12;;;;;;;2.00;1.63;;;24.10;59.90;;;;;;5036341;28;20470;-70
2023/10/15 11:34:41;;;;;;;1.70;1.40;;;24.10;60.30;;;;;;5042176;28;20492;-71
2023/10/15 11:37:16;;;;;;;1.40;1.30;;;24.10;60.30;;;;;;5034054;28;20469;-72
2023/10/15 11:39:47;;;;;;;1.77;1.57;;;24.10;60.40;;;;;;5035078;28;20496;-72
2023/10/15 11:42:19;;;;;;;3.30;1.50;;;24.10;60.70;;;;;;5042465;28;20499;-73
2023/10/15 11:44:55;;;;;;;2.17;1.97;;;24.10;60.30;;;;;;5039733;28;21041;-72
2023/10/15 11:47:27;;;;;;;2.93;1.63;;;24.20;60.00;;;;;;5035410;28;20461;-73
2023/10/15 11:49:56;;;;;;;1.30;1.20;;;24.20;59.60;;;;;;5036843;28;20596;-72
2023/10/15 11:52:26;;;;;;;2.33;1.70;;;24.30;60.00;;;;;;5033139;28;20465;-72
2023/10/15 11:54:57;;;;;;;3.40;1.50;;;24.30;60.00;;;;;;5034016;28;20469;-72
2023/10/15 11:57:27;;;;;;;1.97;1.80;;;24.20;59.90;;;;;;5030932;28;21053;-72
2023/10/15 11:59:56;;;;;;;2.47;1.70;;;24.20;59.90;;;;;;5036676;28;20500;-73
2023/10/15 12:02:27;;;;;;;2.07;1.80;;;24.10;60.00;;;;;;5032680;28;20516;-73
2023/10/15 12:05:01;;;;;;;3.20;2.23;;;24.10;59.80;;;;;;5043151;28;20859;-73
2023/10/15 12:07:31;;;;;;;2.67;1.80;;;24.10;59.90;;;;;;5032776;28;20465;-72
2023/10/15 12:10:00;;;;;;;1.67;1.57;;;24.00;60.00;;;;;;5034911;28;20514;-71
2023/10/15 12:12:31;;;;;;;2.60;2.30;;;24.00;60.10;;;;;;5039120;28;20470;-73
2023/10/15 12:15:01;;;;;;;2.30;1.50;;;24.00;60.40;;;;;;5028877;28;20847;-72
2023/10/15 12:17:29;;;;;;;2.17;2.00;;;24.00;60.20;;;;;;5033322;28;20857;-74
2023/10/15 12:19:57;;;;;;;2.50;2.30;;;24.00;60.60;;;;;;5031127;28;20467;-72
2023/10/15 12:22:47;;;;;;;2.17;2.07;;;23.90;60.40;;;;;;5030782;28;20469;-73
2023/10/15 12:25:15;;;;;;;2.50;2.30;;;23.90;60.40;;;;;;5032405;28;20472;-73
2023/10/15 12:27:44;;;;;;;2.30;2.10;;;23.90;60.50;;;;;;5033806;28;21332;-73
2023/10/15 12:30:23;;;;;;;1.60;1.50;;;23.90;61.30;;;;;;5034563;28;20461;-70
2023/10/15 12:32:51;;;;;;;2.40;2.10;;;23.90;61.40;;;;;;5027893;28;20457;-70
2023/10/15 12:35:20;;;;;;;3.23;2.60;;;24.00;61.20;;;;;;5048974;28;20473;-70
2023/10/15 12:37:53;;;;;;;3.23;2.93;;;24.00;61.10;;;;;;5025900;28;21037;-70
2023/10/15 12:40:23;;;;;;;2.97;2.53;;;24.00;61.10;;;;;;5035146;28;20999;-70
2023/10/15 12:42:52;;;;;;;5.33;2.53;;;24.00;60.90;;;;;;5027304;28;20497;-71
2023/10/15 12:45:21;;;;;;;2.57;2.23;;;24.00;60.80;;;;;;5031611;28;20494;-70
2023/10/15 12:47:50;;;;;;;5.90;3.07;;;24.00;60.40;;;;;;5030495;28;20464;-70
2023/10/15 12:50:21;;;;;;;6.00;2.60;;;24.00;60.10;;;;;;5031580;28;20491;-70
2023/10/15 12:52:52;;;;;;;7.13;3.17;;;24.00;60.20;;;;;;5047831;28;20478;-70
2023/10/15 12:55:21;;;;;;;6.77;2.17;;;24.00;60.20;;;;;;5035868;28;21172;-70
2023/10/15 12:57:50;;;;;;;3.43;2.40;;;24.00;60.20;;;;;;5036393;28;20462;-70
2023/10/15 13:00:21;;;;;;;6.77;2.50;;;24.00;60.30;;;;;;5031448;28;20508;-70
2023/10/15 13:02:51;;;;;;;5.10;3.23;;;24.00;60.40;;;;;;5029043;28;20458;-70
2023/10/15 13:05:21;;;;;;;4.97;2.93;;;24.10;60.30;;;;;;5039434;28;21077;-70
2023/10/15 13:07:53;;;;;;;2.57;2.37;;;24.20;60.10;;;;;;5039232;28;20460;-70
2023/10/15 13:10:22;;;;;;;5.77;3.07;;;24.20;60.00;;;;;;5053702;28;20466;-70
2023/10/15 13:12:51;;;;;;;3.43;2.87;;;24.30;59.90;;;;;;5036617;28;20500;-70